AirNav   Air Wisconsin Up To $57,000 Bonus
 
 293 users online  

4NA6 Nicks Landing Airport
Grenora, North Dakota, USA

GOING TO GRENORA?


FAA INFORMATION EFFECTIVE 15 AUGUST 2019

Location

FAA Identifier: 4NA6
Lat/Long: 48-27-18.0910N 103-52-46.7440W
48-27.301517N 103-52.779067W
48.4550253,-103.8796511
(estimated)
Elevation: 2440 ft. / 744 m (estimated)
Variation: 12E (1985)
From city: 10 miles SE of GRENORA, ND
Time zone: UTC -5 (UTC -6 during Standard Time)
Zip code: 58845

Airport Operations

Airport use: Private use. Permission required prior to landing
Activation date: 07/1985
Control tower: no
ARTCC: SALT LAKE CITY CENTER
FSS: GRAND FORKS FLIGHT SERVICE STATION
Attendance: UNATNDD
Segmented circle: no

Airport Communications

WX ASOS at ISN (19 nm SE): 125.925 (701-774-3124)

Nearby radio navigation aids

VOR radial/distance  VOR name  Freq  Var
ISNr325/13.1WILLISTON VOR/DME116.3012E

 
NDB name  Hdg/Dist  Freq  Var  ID
PLENTYWOOD112/32.725116EPWD .--. .-- -..

Airport Services

Runway Information

Runway 11/29

Dimensions: 2000 x 60 ft. / 610 x 18 m
Surface: turf
RUNWAY 11  RUNWAY 29
Traffic pattern: leftleft
Obstructions: 30 ft. trees, 300 ft. from runwaynone

Runway 17/35

Dimensions: 1500 x 60 ft. / 457 x 18 m
Surface: turf
RUNWAY 17  RUNWAY 35
Traffic pattern: leftleft
Obstructions: 30 ft. trees, 300 ft. from runwaynone

Airport Ownership and Management from official FAA records

Ownership: Privately-owned
Owner: NICK PASTERNAK
GRENORA, ND 58845
Phone 701-826-3351
Manager: NICK PASTERNAK
GRENORA, ND 58845
Phone 701-826-3351

Airport Operational Statistics

Aircraft based on the field: 1
Single engine airplanes: 1
    

Additional Remarks

FOR CD CTC SALT LAKE ARTCC AT 801-320-2568.

Instrument Procedures

There are no published instrument procedures at 4NA6.

Some nearby airports with instrument procedures:

KISN - Sloulin Field International Airport (19 nm SE)
KPWD - Sher-Wood Airport (32 nm NW)
D50 - Crosby Municipal Airport (37 nm NE)
D60 - Tioga Municipal Airport (39 nm E)
KSDY - Sidney-Richland Regional Airport (47 nm S)
 
Loc | Ops | Rwys | IFR | FBO | Links
Com | Nav | Svcs | Stats | Notes

Bismarck Aero Center
AirBoss

 
Area around 4NA6 (Nicks Landing Airport)
 
Road maps at: MapQuest Bing Google
 
Aerial photo
No photo
 
Sectional chart

 
Airport distance calculator
Flying to Nicks Landing Airport? Find the distance to fly.

From to 4NA6

Sunrise and sunset
Times for 18-Aug-2019
 Local
(UTC-5)
 Zulu
(UTC)
Morning civil twilight06:2011:20
Sunrise06:5411:54
Sunset21:0402:04
Evening civil twilight21:3802:38

Current date and time
Zulu (UTC)  18-Aug-2019 09:53:02
Local (UTC-5)  18-Aug-2019 04:53:02
 
METAR
KISN 
20nm SE 
180852Z AUTO 23009KT 10SM CLR 09/07 A2984 RMK AO2 SLP108 T00940072 55002
KD50 
37nm NE 
180935Z AUTO 22008KT 10SM CLR 08/07 A2980 RMK AO2
KD60 
39nm E 
180935Z AUTO 24006KT 10SM CLR 07/07 A2985 RMK AO2
TAF
KISN 
20nm SE 
180520Z 1806/1906 26006KT P6SM SKC FM181800 22012G23KT P6SM FEW070 FEW250 FM190300 20005KT P6SM SKC
NOTAMs
Click for the latest NOTAMs
NOTAMs are issued by the DoD/FAA and will open in a separate window not controlled by AirNav.

 

 
 

Would you like to see your business listed on this page?

 If your business provides an interesting product or service to pilots, flight crews, aircraft, or users of the Nicks Landing Airport, you should consider listing it here.  To start the listing process, click on the button below
 
Add a business
 

Other Pages about Nicks Landing Airport

Update a link
 
Copyright © AirNav, LLC. All rights reserved. Privacy Policy  Contact